»·PEaware :: N2494V KABQ-KFMN

N2494V :: KABQ-KFMN

FLIGHT INFORMATION

Flight Status: Arrived
Operator: Privately registered:
United States
More flights under this callsign
Pilot: Sally S. (18014)
Aircraft: Unknown
(DA62)
More flights by this aircraft type
Origin: KABQ Albuquerque Intl Sunport
United States
Destination: KFMN Four Corners Regl
United States
More flights between these airports :: More routes between these airports
Route: +ABQ3 ABQ V187 MISSY
File this flight plan on PilotEdge
Remarks:
Altitude:
(Current/Filed)
10,000ft
Speed:
(Current/Filed)
160kts
Departed: 10-Apr-18 12:06 PM
Arrived: 10-Apr-18 12:59 PM
Distance/Time
Traveled:
129nm/0:53
Distance/Time
To Go:
Arrived

Flight Plot

Page will automatically refresh every two minutes.

Flight plan parsing failed; only flown route is shown


Map Options




Map Legend


Flown Route
Filed Route
Departure Airport
Arrival Airport
Navaid (VOR, NDB)
Fix

Horizontal Profiles

Position Reports

Time Latitude Longitude Heading Altitude Ground
Speed
10-Apr-18 11:37 35.034827 -106.618732 161 5358ft 0kts
10-Apr-18 11:38 35.034827 -106.618732 161 5358ft 0kts
10-Apr-18 11:39 35.034827 -106.618732 161 5358ft 0kts
10-Apr-18 11:40 35.034827 -106.618732 161 5358ft 0kts
10-Apr-18 11:41 35.034827 -106.618732 161 5358ft 0kts
10-Apr-18 11:42 35.034827 -106.618732 161 5358ft 0kts
10-Apr-18 11:43 35.034827 -106.618732 161 5358ft 0kts
10-Apr-18 11:44 35.034827 -106.618732 161 5358ft 0kts
10-Apr-18 11:45 35.034827 -106.618732 161 5358ft 0kts
10-Apr-18 11:46 35.034827 -106.618732 161 5358ft 0kts
10-Apr-18 11:47 35.034827 -106.618732 161 5358ft 0kts
10-Apr-18 11:48 35.034827 -106.618732 161 5358ft 0kts
10-Apr-18 11:49 35.034827 -106.618732 161 5358ft 0kts
10-Apr-18 11:50 35.034827 -106.618732 161 5358ft 0kts
10-Apr-18 11:51 35.034827 -106.618732 161 5358ft 0kts
10-Apr-18 11:52 35.034827 -106.618732 161 5358ft 0kts
10-Apr-18 11:53 35.034827 -106.618732 161 5358ft 0kts
10-Apr-18 11:54 35.034827 -106.618732 161 5358ft 0kts
10-Apr-18 11:55 35.034827 -106.618732 161 5358ft 0kts
10-Apr-18 11:56 35.034827 -106.618732 161 5358ft 0kts
10-Apr-18 11:57 35.034823 -106.618731 166 5358ft 0kts
10-Apr-18 11:58 35.034824 -106.618731 166 5358ft 0kts
10-Apr-18 11:59 35.034824 -106.618731 166 5358ft 0kts
10-Apr-18 12:00 35.034824 -106.618731 166 5358ft 0kts
10-Apr-18 12:01 35.033415 -106.619272 222 5358ft 12kts
10-Apr-18 12:02 35.028190 -106.625566 226 5358ft 30kts
10-Apr-18 12:03 35.023638 -106.631082 226 5358ft 16kts
10-Apr-18 12:04 35.022933 -106.631117 131 5358ft 1kts
10-Apr-18 12:05 35.030619 -106.620376 46 5402ft 116kts
10-Apr-18 12:06 35.057020 -106.599648 338 6680ft 108kts
10-Apr-18 12:07 35.080008 -106.620674 318 8012ft 103kts
10-Apr-18 12:08 35.102801 -106.643760 318 9019ft 128kts
10-Apr-18 12:09 35.129845 -106.671974 317 9956ft 132kts
10-Apr-18 12:10 35.151631 -106.713337 300 9998ft 141kts
10-Apr-18 12:11 35.161177 -106.736283 297 10020ft 149kts
10-Apr-18 12:12 35.180663 -106.783112 297 10019ft 158kts
10-Apr-18 12:13 35.200726 -106.831738 297 10019ft 161kts
10-Apr-18 12:14 35.220997 -106.880697 297 10018ft 161kts
10-Apr-18 12:15 35.241375 -106.929673 297 10018ft 162kts
10-Apr-18 12:16 35.265012 -106.975535 326 10021ft 161kts
10-Apr-18 12:17 35.303018 -107.004283 323 10018ft 162kts
10-Apr-18 12:18 35.341314 -107.032318 324 10018ft 162kts
10-Apr-18 12:19 35.379975 -107.060933 328 10018ft 163kts
10-Apr-18 12:20 35.418641 -107.089166 328 10036ft 162kts
10-Apr-18 12:21 35.457476 -107.117573 328 10036ft 162kts
10-Apr-18 12:22 35.496022 -107.145832 328 10036ft 163kts
10-Apr-18 12:23 35.534886 -107.174346 328 10036ft 163kts
10-Apr-18 12:24 35.573634 -107.202831 328 10036ft 163kts
10-Apr-18 12:25 35.612511 -107.231422 328 10036ft 162kts
10-Apr-18 12:26 35.651301 -107.259976 328 10036ft 162kts
10-Apr-18 12:27 35.690013 -107.288533 328 10036ft 162kts
10-Apr-18 12:28 35.728852 -107.317176 328 10038ft 162kts
10-Apr-18 12:29 35.767532 -107.345796 328 10040ft 162kts
10-Apr-18 12:30 35.806345 -107.374480 328 10042ft 163kts
10-Apr-18 12:31 35.844618 -107.402863 328 10044ft 163kts
10-Apr-18 12:32 35.883472 -107.431652 328 10046ft 163kts
10-Apr-18 12:33 35.922184 -107.460380 329 10048ft 163kts
10-Apr-18 12:34 35.961989 -107.486353 330 10050ft 163kts
10-Apr-18 12:35 36.000811 -107.514506 328 10052ft 163kts
10-Apr-18 12:36 36.039494 -107.543765 328 10041ft 163kts
10-Apr-18 12:37 36.077827 -107.573399 328 10028ft 163kts
10-Apr-18 12:38 36.114965 -107.602067 328 10018ft 168kts
10-Apr-18 12:39 36.154678 -107.632738 328 10004ft 170kts
10-Apr-18 12:40 36.192919 -107.662680 327 10046ft 169kts
10-Apr-18 12:41 36.232661 -107.693890 327 10046ft 170kts
10-Apr-18 12:42 36.272638 -107.725127 327 10046ft 170kts
10-Apr-18 12:43 36.312382 -107.756169 327 10046ft 170kts
10-Apr-18 12:44 36.352379 -107.787428 327 10046ft 170kts
10-Apr-18 12:45 36.392326 -107.818683 328 10046ft 170kts
10-Apr-18 12:46 36.432337 -107.849930 327 10028ft 171kts
10-Apr-18 12:47 36.472610 -107.881575 327 10027ft 171kts
10-Apr-18 12:48 36.512736 -107.913106 327 10027ft 171kts
10-Apr-18 12:49 36.552980 -107.944754 327 10027ft 171kts
10-Apr-18 12:50 36.593251 -107.976458 327 10027ft 171kts
10-Apr-18 12:51 36.633404 -108.008106 327 10027ft 171kts
10-Apr-18 12:52 36.673612 -108.039837 327 10027ft 171kts
10-Apr-18 12:53 36.713704 -108.071514 327 10026ft 168kts
10-Apr-18 12:54 36.741861 -108.101705 276 8385ft 123kts
10-Apr-18 12:55 36.743524 -108.139843 268 6838ft 106kts
10-Apr-18 12:56 36.742793 -108.175341 269 6210ft 102kts
10-Apr-18 12:57 36.741792 -108.211052 269 5620ft 100kts
10-Apr-18 12:58 36.740902 -108.223585 198 5508ft 0kts
10-Apr-18 12:59 36.739730 -108.226533 229 5508ft 10kts
10-Apr-18 13:00 36.739750 -108.226808 343 5508ft 0kts

Navigation Log

Ident Type
Flight plan parsing failed, navigation log unavailable